sensor_id;sensor_type;location;lat;lon;timestamp;P1;durP1;ratioP1;P2;durP2;ratioP2
10677;SDS011;5387;48.722;9.110;2023-08-06T00:00:20;4.00;;;2.85;;
10677;SDS011;5387;48.722;9.110;2023-08-06T00:02:47;4.30;;;2.55;;
10677;SDS011;5387;48.722;9.110;2023-08-06T00:05:14;2.90;;;2.55;;
10677;SDS011;5387;48.722;9.110;2023-08-06T00:07:43;3.08;;;2.72;;
10677;SDS011;5387;48.722;9.110;2023-08-06T00:10:11;2.85;;;2.65;;
10677;SDS011;5387;48.722;9.110;2023-08-06T00:18:51;5.95;;;3.33;;
10677;SDS011;5387;48.722;9.110;2023-08-06T00:21:17;8.20;;;3.70;;
10677;SDS011;5387;48.722;9.110;2023-08-06T00:23:44;3.90;;;2.92;;
10677;SDS011;5387;48.722;9.110;2023-08-06T00:26:12;7.30;;;3.33;;
10677;SDS011;5387;48.722;9.110;2023-08-06T00:28:39;3.53;;;3.22;;
10677;SDS011;5387;48.722;9.110;2023-08-06T00:31:06;3.35;;;2.97;;
10677;SDS011;5387;48.722;9.110;2023-08-06T00:33:33;3.77;;;3.40;;
10677;SDS011;5387;48.722;9.110;2023-08-06T00:35:59;3.50;;;2.87;;
10677;SDS011;5387;48.722;9.110;2023-08-06T00:38:26;2.55;;;2.35;;
10677;SDS011;5387;48.722;9.110;2023-08-06T00:40:53;2.72;;;2.53;;
10677;SDS011;5387;48.722;9.110;2023-08-06T00:43:21;4.25;;;2.50;;
10677;SDS011;5387;48.722;9.110;2023-08-06T00:45:48;5.53;;;2.73;;
10677;SDS011;5387;48.722;9.110;2023-08-06T00:48:15;2.40;;;2.20;;
10677;SDS011;5387;48.722;9.110;2023-08-06T00:50:42;7.85;;;2.78;;
10677;SDS011;5387;48.722;9.110;2023-08-06T00:53:09;3.23;;;2.67;;
10677;SDS011;5387;48.722;9.110;2023-08-06T00:55:36;3.73;;;2.40;;
10677;SDS011;5387;48.722;9.110;2023-08-06T00:58:03;2.90;;;2.60;;
10677;SDS011;5387;48.722;9.110;2023-08-06T01:00:31;4.60;;;2.40;;
10677;SDS011;5387;48.722;9.110;2023-08-06T01:02:58;2.63;;;2.25;;
10677;SDS011;5387;48.722;9.110;2023-08-06T01:05:26;2.50;;;2.30;;
10677;SDS011;5387;48.722;9.110;2023-08-06T01:07:57;4.55;;;2.25;;
10677;SDS011;5387;48.722;9.110;2023-08-06T01:10:40;8.48;;;2.80;;
10677;SDS011;5387;48.722;9.110;2023-08-06T01:13:16;3.17;;;2.38;;
10677;SDS011;5387;48.722;9.110;2023-08-06T01:16:03;2.40;;;2.17;;
10677;SDS011;5387;48.722;9.110;2023-08-06T01:18:31;2.97;;;2.65;;
10677;SDS011;5387;48.722;9.110;2023-08-06T01:20:59;3.72;;;2.78;;
10677;SDS011;5387;48.722;9.110;2023-08-06T01:23:26;4.65;;;2.58;;
10677;SDS011;5387;48.722;9.110;2023-08-06T01:25:55;2.50;;;2.30;;
10677;SDS011;5387;48.722;9.110;2023-08-06T01:28:29;3.07;;;2.80;;
10677;SDS011;5387;48.722;9.110;2023-08-06T01:31:02;2.90;;;2.70;;
10677;SDS011;5387;48.722;9.110;2023-08-06T01:33:35;4.45;;;2.58;;
10677;SDS011;5387;48.722;9.110;2023-08-06T01:36:06;2.88;;;2.67;;
10677;SDS011;5387;48.722;9.110;2023-08-06T01:38:33;2.70;;;2.50;;
10677;SDS011;5387;48.722;9.110;2023-08-06T01:41:00;2.50;;;2.30;;
10677;SDS011;5387;48.722;9.110;2023-08-06T01:43:27;2.57;;;2.37;;
10677;SDS011;5387;48.722;9.110;2023-08-06T01:45:54;2.90;;;2.60;;
10677;SDS011;5387;48.722;9.110;2023-08-06T01:48:20;4.13;;;2.63;;
10677;SDS011;5387;48.722;9.110;2023-08-06T01:50:47;3.58;;;2.83;;
10677;SDS011;5387;48.722;9.110;2023-08-06T01:53:15;5.60;;;2.63;;
10677;SDS011;5387;48.722;9.110;2023-08-06T01:55:42;3.28;;;2.25;;
10677;SDS011;5387;48.722;9.110;2023-08-06T01:58:13;4.53;;;2.75;;
10677;SDS011;5387;48.722;9.110;2023-08-06T02:00:40;2.80;;;2.53;;
10677;SDS011;5387;48.722;9.110;2023-08-06T02:03:07;2.93;;;2.63;;
10677;SDS011;5387;48.722;9.110;2023-08-06T02:05:33;4.77;;;2.47;;
10677;SDS011;5387;48.722;9.110;2023-08-06T02:08:00;5.90;;;2.83;;
10677;SDS011;5387;48.722;9.110;2023-08-06T02:10:28;3.00;;;2.70;;
10677;SDS011;5387;48.722;9.110;2023-08-06T02:12:55;3.30;;;2.63;;
10677;SDS011;5387;48.722;9.110;2023-08-06T02:15:22;3.80;;;2.50;;
10677;SDS011;5387;48.722;9.110;2023-08-06T02:17:48;5.07;;;2.23;;
10677;SDS011;5387;48.722;9.110;2023-08-06T02:20:15;4.00;;;2.57;;
10677;SDS011;5387;48.722;9.110;2023-08-06T02:22:42;2.70;;;2.30;;
10677;SDS011;5387;48.722;9.110;2023-08-06T02:25:09;2.57;;;2.37;;
10677;SDS011;5387;48.722;9.110;2023-08-06T02:27:38;2.70;;;2.50;;
10677;SDS011;5387;48.722;9.110;2023-08-06T02:30:05;6.23;;;2.80;;
10677;SDS011;5387;48.722;9.110;2023-08-06T02:32:32;3.77;;;2.67;;
10677;SDS011;5387;48.722;9.110;2023-08-06T02:35:01;2.90;;;2.37;;
10677;SDS011;5387;48.722;9.110;2023-08-06T02:37:28;3.37;;;2.87;;
10677;SDS011;5387;48.722;9.110;2023-08-06T02:39:54;2.83;;;2.50;;
10677;SDS011;5387;48.722;9.110;2023-08-06T02:42:21;2.40;;;2.20;;
10677;SDS011;5387;48.722;9.110;2023-08-06T02:44:50;2.57;;;2.37;;
10677;SDS011;5387;48.722;9.110;2023-08-06T02:47:17;4.13;;;2.87;;
10677;SDS011;5387;48.722;9.110;2023-08-06T02:49:43;2.73;;;2.27;;
10677;SDS011;5387;48.722;9.110;2023-08-06T02:52:10;2.40;;;2.13;;
10677;SDS011;5387;48.722;9.110;2023-08-06T02:54:37;3.67;;;2.20;;
10677;SDS011;5387;48.722;9.110;2023-08-06T02:57:05;2.20;;;2.00;;
10677;SDS011;5387;48.722;9.110;2023-08-06T02:59:32;2.77;;;2.43;;
10677;SDS011;5387;48.722;9.110;2023-08-06T03:02:00;2.50;;;2.30;;
10677;SDS011;5387;48.722;9.110;2023-08-06T03:04:27;3.60;;;2.20;;
10677;SDS011;5387;48.722;9.110;2023-08-06T03:06:54;3.53;;;2.50;;
10677;SDS011;5387;48.722;9.110;2023-08-06T03:09:20;2.33;;;1.90;;
10677;SDS011;5387;48.722;9.110;2023-08-06T03:11:46;2.27;;;2.10;;
10677;SDS011;5387;48.722;9.110;2023-08-06T03:14:13;4.10;;;2.10;;
10677;SDS011;5387;48.722;9.110;2023-08-06T03:16:39;2.50;;;2.30;;
10677;SDS011;5387;48.722;9.110;2023-08-06T03:19:08;2.23;;;2.10;;
10677;SDS011;5387;48.722;9.110;2023-08-06T03:21:34;4.93;;;1.93;;
10677;SDS011;5387;48.722;9.110;2023-08-06T03:24:01;2.73;;;2.00;;
10677;SDS011;5387;48.722;9.110;2023-08-06T03:26:28;2.20;;;2.00;;
10677;SDS011;5387;48.722;9.110;2023-08-06T03:28:55;3.50;;;1.97;;
10677;SDS011;5387;48.722;9.110;2023-08-06T03:31:21;2.53;;;2.27;;
10677;SDS011;5387;48.722;9.110;2023-08-06T03:33:48;2.50;;;2.07;;
10677;SDS011;5387;48.722;9.110;2023-08-06T03:36:16;2.33;;;2.07;;
10677;SDS011;5387;48.722;9.110;2023-08-06T03:38:43;1.70;;;1.60;;
10677;SDS011;5387;48.722;9.110;2023-08-06T03:41:10;1.63;;;1.53;;
10677;SDS011;5387;48.722;9.110;2023-08-06T03:43:37;1.60;;;1.50;;
10677;SDS011;5387;48.722;9.110;2023-08-06T03:46:03;3.57;;;1.80;;
10677;SDS011;5387;48.722;9.110;2023-08-06T03:48:30;1.93;;;1.57;;
10677;SDS011;5387;48.722;9.110;2023-08-06T03:50:57;2.10;;;1.75;;
10677;SDS011;5387;48.722;9.110;2023-08-06T03:53:27;4.72;;;3.38;;
10677;SDS011;5387;48.722;9.110;2023-08-06T03:55:54;2.43;;;2.13;;
10677;SDS011;5387;48.722;9.110;2023-08-06T03:58:24;4.93;;;1.90;;
10677;SDS011;5387;48.722;9.110;2023-08-06T04:00:57;1.80;;;1.70;;
10677;SDS011;5387;48.722;9.110;2023-08-06T04:03:24;3.47;;;2.00;;
10677;SDS011;5387;48.722;9.110;2023-08-06T04:05:51;2.23;;;1.87;;
10677;SDS011;5387;48.722;9.110;2023-08-06T04:08:18;2.10;;;1.80;;
10677;SDS011;5387;48.722;9.110;2023-08-06T04:10:48;3.03;;;1.90;;
10677;SDS011;5387;48.722;9.110;2023-08-06T04:13:15;2.47;;;1.80;;
10677;SDS011;5387;48.722;9.110;2023-08-06T04:15:42;2.88;;;1.45;;
10677;SDS011;5387;48.722;9.110;2023-08-06T04:18:09;1.80;;;1.60;;
10677;SDS011;5387;48.722;9.110;2023-08-06T04:20:41;1.53;;;1.43;;
10677;SDS011;5387;48.722;9.110;2023-08-06T04:23:09;5.80;;;2.10;;
10677;SDS011;5387;48.722;9.110;2023-08-06T04:25:36;1.93;;;1.83;;
10677;SDS011;5387;48.722;9.110;2023-08-06T04:28:04;1.70;;;1.60;;
10677;SDS011;5387;48.722;9.110;2023-08-06T04:30:31;2.20;;;1.70;;
10677;SDS011;5387;48.722;9.110;2023-08-06T04:32:58;1.70;;;1.60;;
10677;SDS011;5387;48.722;9.110;2023-08-06T04:35:25;2.77;;;1.83;;
10677;SDS011;5387;48.722;9.110;2023-08-06T04:37:51;1.90;;;1.80;;
10677;SDS011;5387;48.722;9.110;2023-08-06T04:40:18;4.72;;;1.98;;
10677;SDS011;5387;48.722;9.110;2023-08-06T04:42:45;2.07;;;1.70;;
10677;SDS011;5387;48.722;9.110;2023-08-06T04:45:13;1.50;;;1.40;;
10677;SDS011;5387;48.722;9.110;2023-08-06T04:47:40;4.20;;;1.70;;
10677;SDS011;5387;48.722;9.110;2023-08-06T04:50:07;3.77;;;1.63;;
10677;SDS011;5387;48.722;9.110;2023-08-06T04:52:34;1.90;;;1.60;;
10677;SDS011;5387;48.722;9.110;2023-08-06T04:55:01;1.53;;;1.43;;
10677;SDS011;5387;48.722;9.110;2023-08-06T04:57:30;1.63;;;1.30;;
10677;SDS011;5387;48.722;9.110;2023-08-06T04:59:57;3.40;;;1.20;;
10677;SDS011;5387;48.722;9.110;2023-08-06T05:02:25;2.43;;;1.40;;
10677;SDS011;5387;48.722;9.110;2023-08-06T05:04:52;1.70;;;1.13;;
10677;SDS011;5387;48.722;9.110;2023-08-06T05:07:19;1.73;;;1.63;;
10677;SDS011;5387;48.722;9.110;2023-08-06T05:09:46;2.17;;;1.63;;
10677;SDS011;5387;48.722;9.110;2023-08-06T05:12:13;1.40;;;1.30;;
10677;SDS011;5387;48.722;9.110;2023-08-06T05:14:39;1.90;;;1.50;;
10677;SDS011;5387;48.722;9.110;2023-08-06T05:17:06;1.30;;;1.20;;
10677;SDS011;5387;48.722;9.110;2023-08-06T05:19:34;3.17;;;1.40;;
10677;SDS011;5387;48.722;9.110;2023-08-06T05:22:01;4.33;;;1.30;;
10677;SDS011;5387;48.722;9.110;2023-08-06T05:24:28;1.20;;;1.20;;
10677;SDS011;5387;48.722;9.110;2023-08-06T05:26:55;2.97;;;1.10;;
10677;SDS011;5387;48.722;9.110;2023-08-06T05:29:21;0.95;;;0.93;;
10677;SDS011;5387;48.722;9.110;2023-08-06T05:31:48;1.20;;;1.10;;
10677;SDS011;5387;48.722;9.110;2023-08-06T05:34:15;0.90;;;0.90;;
10677;SDS011;5387;48.722;9.110;2023-08-06T05:36:43;1.25;;;0.88;;
10677;SDS011;5387;48.722;9.110;2023-08-06T05:39:10;0.88;;;0.80;;
10677;SDS011;5387;48.722;9.110;2023-08-06T05:41:37;3.38;;;1.27;;
10677;SDS011;5387;48.722;9.110;2023-08-06T05:44:03;0.95;;;0.95;;
10677;SDS011;5387;48.722;9.110;2023-08-06T05:46:30;3.00;;;0.90;;
10677;SDS011;5387;48.722;9.110;2023-08-06T05:48:57;2.47;;;0.80;;
10677;SDS011;5387;48.722;9.110;2023-08-06T05:51:25;1.20;;;1.00;;
10677;SDS011;5387;48.722;9.110;2023-08-06T05:53:54;1.95;;;0.90;;
10677;SDS011;5387;48.722;9.110;2023-08-06T05:56:20;2.35;;;0.98;;
10677;SDS011;5387;48.722;9.110;2023-08-06T05:58:47;3.35;;;1.00;;
10677;SDS011;5387;48.722;9.110;2023-08-06T06:01:16;4.10;;;0.90;;
10677;SDS011;5387;48.722;9.110;2023-08-06T06:03:43;0.63;;;0.63;;
10677;SDS011;5387;48.722;9.110;2023-08-06T06:06:10;0.90;;;0.90;;
10677;SDS011;5387;48.722;9.110;2023-08-06T06:08:36;0.88;;;0.80;;
10677;SDS011;5387;48.722;9.110;2023-08-06T06:11:04;0.80;;;0.80;;
10677;SDS011;5387;48.722;9.110;2023-08-06T06:13:31;1.30;;;0.75;;
10677;SDS011;5387;48.722;9.110;2023-08-06T06:15:58;0.88;;;0.85;;
10677;SDS011;5387;48.722;9.110;2023-08-06T06:18:25;1.63;;;1.00;;
10677;SDS011;5387;48.722;9.110;2023-08-06T06:20:52;0.90;;;0.90;;
10677;SDS011;5387;48.722;9.110;2023-08-06T06:23:18;3.47;;;1.17;;
10677;SDS011;5387;48.722;9.110;2023-08-06T06:25:46;0.90;;;0.90;;
10677;SDS011;5387;48.722;9.110;2023-08-06T06:28:15;1.52;;;1.10;;
10677;SDS011;5387;48.722;9.110;2023-08-06T06:30:42;0.80;;;0.80;;
10677;SDS011;5387;48.722;9.110;2023-08-06T06:33:09;1.00;;;1.00;;
10677;SDS011;5387;48.722;9.110;2023-08-06T06:35:36;1.00;;;0.90;;
10677;SDS011;5387;48.722;9.110;2023-08-06T06:38:03;3.20;;;1.10;;
10677;SDS011;5387;48.722;9.110;2023-08-06T06:40:29;1.75;;;1.13;;
10677;SDS011;5387;48.722;9.110;2023-08-06T06:42:58;1.42;;;1.10;;
10677;SDS011;5387;48.722;9.110;2023-08-06T06:45:26;2.58;;;1.27;;
10677;SDS011;5387;48.722;9.110;2023-08-06T06:47:52;2.95;;;1.00;;
10677;SDS011;5387;48.722;9.110;2023-08-06T06:50:19;1.80;;;1.00;;
10677;SDS011;5387;48.722;9.110;2023-08-06T06:52:46;1.20;;;0.88;;
10677;SDS011;5387;48.722;9.110;2023-08-06T06:55:13;0.80;;;0.80;;
10677;SDS011;5387;48.722;9.110;2023-08-06T06:57:40;2.70;;;0.90;;
10677;SDS011;5387;48.722;9.110;2023-08-06T07:00:07;1.40;;;1.10;;
10677;SDS011;5387;48.722;9.110;2023-08-06T07:02:35;0.80;;;0.80;;
10677;SDS011;5387;48.722;9.110;2023-08-06T07:05:02;0.90;;;0.90;;
10677;SDS011;5387;48.722;9.110;2023-08-06T07:07:29;0.77;;;0.77;;
10677;SDS011;5387;48.722;9.110;2023-08-06T07:09:56;0.70;;;0.70;;
10677;SDS011;5387;48.722;9.110;2023-08-06T07:12:23;1.00;;;0.83;;
10677;SDS011;5387;48.722;9.110;2023-08-06T07:14:49;1.90;;;1.00;;
10677;SDS011;5387;48.722;9.110;2023-08-06T07:17:16;2.10;;;1.07;;
10677;SDS011;5387;48.722;9.110;2023-08-06T07:19:44;1.03;;;0.93;;
10677;SDS011;5387;48.722;9.110;2023-08-06T07:22:11;1.00;;;0.90;;
10677;SDS011;5387;48.722;9.110;2023-08-06T07:24:38;1.17;;;1.03;;
10677;SDS011;5387;48.722;9.110;2023-08-06T07:27:05;0.80;;;0.80;;
10677;SDS011;5387;48.722;9.110;2023-08-06T07:29:32;1.60;;;1.50;;
10677;SDS011;5387;48.722;9.110;2023-08-06T07:31:59;0.70;;;0.70;;
10677;SDS011;5387;48.722;9.110;2023-08-06T07:34:26;2.53;;;1.00;;
10677;SDS011;5387;48.722;9.110;2023-08-06T07:36:54;2.00;;;0.90;;
10677;SDS011;5387;48.722;9.110;2023-08-06T07:39:21;1.40;;;0.90;;
10677;SDS011;5387;48.722;9.110;2023-08-06T07:41:48;0.70;;;0.70;;
10677;SDS011;5387;48.722;9.110;2023-08-06T07:44:15;0.70;;;0.70;;
10677;SDS011;5387;48.722;9.110;2023-08-06T07:46:43;0.60;;;0.60;;
10677;SDS011;5387;48.722;9.110;2023-08-06T07:49:10;0.60;;;0.60;;
10677;SDS011;5387;48.722;9.110;2023-08-06T07:51:37;1.80;;;0.70;;
10677;SDS011;5387;48.722;9.110;2023-08-06T07:54:05;0.87;;;0.60;;
10677;SDS011;5387;48.722;9.110;2023-08-06T07:56:32;1.07;;;0.93;;
10677;SDS011;5387;48.722;9.110;2023-08-06T07:59:01;0.40;;;0.40;;
10677;SDS011;5387;48.722;9.110;2023-08-06T08:01:27;0.50;;;0.50;;
10677;SDS011;5387;48.722;9.110;2023-08-06T08:03:54;0.50;;;0.50;;
10677;SDS011;5387;48.722;9.110;2023-08-06T08:06:21;0.70;;;0.70;;
10677;SDS011;5387;48.722;9.110;2023-08-06T08:08:48;0.60;;;0.60;;
10677;SDS011;5387;48.722;9.110;2023-08-06T08:11:16;0.50;;;0.50;;
10677;SDS011;5387;48.722;9.110;2023-08-06T08:13:43;0.50;;;0.50;;
10677;SDS011;5387;48.722;9.110;2023-08-06T08:16:10;0.93;;;0.93;;
10677;SDS011;5387;48.722;9.110;2023-08-06T08:18:37;0.47;;;0.47;;
10677;SDS011;5387;48.722;9.110;2023-08-06T08:21:04;0.95;;;0.50;;
10677;SDS011;5387;48.722;9.110;2023-08-06T08:23:30;0.60;;;0.60;;
10677;SDS011;5387;48.722;9.110;2023-08-06T08:25:57;0.85;;;0.70;;
10677;SDS011;5387;48.722;9.110;2023-08-06T08:28:26;0.50;;;0.50;;
10677;SDS011;5387;48.722;9.110;2023-08-06T08:30:52;0.50;;;0.50;;
10677;SDS011;5387;48.722;9.110;2023-08-06T08:33:20;0.40;;;0.40;;
10677;SDS011;5387;48.722;9.110;2023-08-06T08:35:48;0.50;;;0.50;;
10677;SDS011;5387;48.722;9.110;2023-08-06T08:38:14;0.50;;;0.50;;
10677;SDS011;5387;48.722;9.110;2023-08-06T08:40:43;0.50;;;0.50;;
10677;SDS011;5387;48.722;9.110;2023-08-06T08:43:13;0.60;;;0.60;;
10677;SDS011;5387;48.722;9.110;2023-08-06T08:45:42;0.40;;;0.40;;
10677;SDS011;5387;48.722;9.110;2023-08-06T08:48:14;0.50;;;0.50;;
10677;SDS011;5387;48.722;9.110;2023-08-06T08:50:44;0.50;;;0.50;;
10677;SDS011;5387;48.722;9.110;2023-08-06T08:53:11;0.50;;;0.50;;
10677;SDS011;5387;48.722;9.110;2023-08-06T08:55:40;0.60;;;0.60;;
10677;SDS011;5387;48.722;9.110;2023-08-06T08:58:08;0.60;;;0.60;;
10677;SDS011;5387;48.722;9.110;2023-08-06T09:00:35;0.60;;;0.60;;
10677;SDS011;5387;48.722;9.110;2023-08-06T09:03:04;0.50;;;0.50;;
10677;SDS011;5387;48.722;9.110;2023-08-06T09:05:32;0.40;;;0.40;;
10677;SDS011;5387;48.722;9.110;2023-08-06T09:08:02;0.50;;;0.50;;
10677;SDS011;5387;48.722;9.110;2023-08-06T09:10:36;0.50;;;0.50;;
10677;SDS011;5387;48.722;9.110;2023-08-06T09:13:07;0.57;;;0.57;;
10677;SDS011;5387;48.722;9.110;2023-08-06T09:15:34;0.50;;;0.50;;
10677;SDS011;5387;48.722;9.110;2023-08-06T09:18:04;0.50;;;0.50;;
10677;SDS011;5387;48.722;9.110;2023-08-06T09:20:37;0.50;;;0.50;;
10677;SDS011;5387;48.722;9.110;2023-08-06T09:23:06;0.50;;;0.50;;
10677;SDS011;5387;48.722;9.110;2023-08-06T09:25:36;0.50;;;0.50;;
10677;SDS011;5387;48.722;9.110;2023-08-06T09:28:05;0.40;;;0.40;;
10677;SDS011;5387;48.722;9.110;2023-08-06T09:30:33;1.55;;;0.57;;
10677;SDS011;5387;48.722;9.110;2023-08-06T09:33:00;0.50;;;0.50;;
10677;SDS011;5387;48.722;9.110;2023-08-06T09:35:29;0.57;;;0.50;;
10677;SDS011;5387;48.722;9.110;2023-08-06T09:38:01;1.38;;;0.68;;
10677;SDS011;5387;48.722;9.110;2023-08-06T09:40:33;0.50;;;0.50;;
10677;SDS011;5387;48.722;9.110;2023-08-06T09:45:45;0.50;;;0.50;;
10677;SDS011;5387;48.722;9.110;2023-08-06T09:48:12;0.60;;;0.60;;
10677;SDS011;5387;48.722;9.110;2023-08-06T09:50:39;0.55;;;0.55;;
10677;SDS011;5387;48.722;9.110;2023-08-06T09:53:06;0.50;;;0.50;;
10677;SDS011;5387;48.722;9.110;2023-08-06T09:55:34;0.60;;;0.60;;
10677;SDS011;5387;48.722;9.110;2023-08-06T09:58:01;0.55;;;0.55;;
10677;SDS011;5387;48.722;9.110;2023-08-06T10:00:28;0.47;;;0.47;;
10677;SDS011;5387;48.722;9.110;2023-08-06T10:03:00;0.40;;;0.40;;
10677;SDS011;5387;48.722;9.110;2023-08-06T10:05:27;0.50;;;0.50;;
10677;SDS011;5387;48.722;9.110;2023-08-06T10:07:53;0.47;;;0.47;;
10677;SDS011;5387;48.722;9.110;2023-08-06T10:10:21;0.50;;;0.50;;
10677;SDS011;5387;48.722;9.110;2023-08-06T10:12:51;0.75;;;0.75;;
10677;SDS011;5387;48.722;9.110;2023-08-06T10:15:22;0.63;;;0.63;;
10677;SDS011;5387;48.722;9.110;2023-08-06T10:17:51;0.60;;;0.60;;
10677;SDS011;5387;48.722;9.110;2023-08-06T10:20:23;1.70;;;0.73;;
10677;SDS011;5387;48.722;9.110;2023-08-06T10:23:00;0.70;;;0.60;;
10677;SDS011;5387;48.722;9.110;2023-08-06T10:25:30;0.50;;;0.50;;
10677;SDS011;5387;48.722;9.110;2023-08-06T10:27:58;0.47;;;0.47;;
10677;SDS011;5387;48.722;9.110;2023-08-06T10:30:26;0.75;;;0.60;;
10677;SDS011;5387;48.722;9.110;2023-08-06T10:32:54;1.75;;;0.50;;
10677;SDS011;5387;48.722;9.110;2023-08-06T10:35:30;0.60;;;0.60;;
10677;SDS011;5387;48.722;9.110;2023-08-06T10:37:58;0.50;;;0.50;;
10677;SDS011;5387;48.722;9.110;2023-08-06T10:40:26;0.45;;;0.45;;
10677;SDS011;5387;48.722;9.110;2023-08-06T10:42:54;0.57;;;0.57;;
10677;SDS011;5387;48.722;9.110;2023-08-06T10:45:21;0.75;;;0.75;;
10677;SDS011;5387;48.722;9.110;2023-08-06T10:47:53;0.60;;;0.60;;
10677;SDS011;5387;48.722;9.110;2023-08-06T10:50:21;0.50;;;0.50;;
10677;SDS011;5387;48.722;9.110;2023-08-06T10:52:49;1.75;;;0.90;;
10677;SDS011;5387;48.722;9.110;2023-08-06T10:55:23;0.70;;;0.70;;
10677;SDS011;5387;48.722;9.110;2023-08-06T10:57:51;1.55;;;0.98;;
10677;SDS011;5387;48.722;9.110;2023-08-06T11:00:18;0.60;;;0.60;;
10677;SDS011;5387;48.722;9.110;2023-08-06T11:02:47;0.55;;;0.55;;
10677;SDS011;5387;48.722;9.110;2023-08-06T11:05:14;1.00;;;0.77;;
10677;SDS011;5387;48.722;9.110;2023-08-06T11:07:41;0.70;;;0.70;;
10677;SDS011;5387;48.722;9.110;2023-08-06T11:10:10;1.17;;;1.08;;
10677;SDS011;5387;48.722;9.110;2023-08-06T11:12:38;1.48;;;0.70;;
10677;SDS011;5387;48.722;9.110;2023-08-06T11:15:06;0.93;;;0.60;;
10677;SDS011;5387;48.722;9.110;2023-08-06T11:17:34;0.60;;;0.60;;
10677;SDS011;5387;48.722;9.110;2023-08-06T11:20:02;0.75;;;0.75;;
10677;SDS011;5387;48.722;9.110;2023-08-06T11:22:30;1.00;;;1.00;;
10677;SDS011;5387;48.722;9.110;2023-08-06T11:24:57;0.60;;;0.60;;
10677;SDS011;5387;48.722;9.110;2023-08-06T11:27:27;0.70;;;0.70;;
10677;SDS011;5387;48.722;9.110;2023-08-06T11:29:54;0.60;;;0.60;;
10677;SDS011;5387;48.722;9.110;2023-08-06T11:32:21;0.75;;;0.75;;
10677;SDS011;5387;48.722;9.110;2023-08-06T11:34:48;1.10;;;0.98;;
10677;SDS011;5387;48.722;9.110;2023-08-06T11:37:15;0.85;;;0.85;;
10677;SDS011;5387;48.722;9.110;2023-08-06T11:39:44;1.17;;;0.80;;
10677;SDS011;5387;48.722;9.110;2023-08-06T11:42:13;2.22;;;1.00;;
10677;SDS011;5387;48.722;9.110;2023-08-06T11:44:42;0.77;;;0.77;;
10677;SDS011;5387;48.722;9.110;2023-08-06T11:47:12;1.98;;;0.75;;
10677;SDS011;5387;48.722;9.110;2023-08-06T11:49:41;0.70;;;0.70;;
10677;SDS011;5387;48.722;9.110;2023-08-06T11:52:10;0.80;;;0.80;;
10677;SDS011;5387;48.722;9.110;2023-08-06T11:54:40;0.70;;;0.70;;
10677;SDS011;5387;48.722;9.110;2023-08-06T11:57:07;0.80;;;0.80;;
10677;SDS011;5387;48.722;9.110;2023-08-06T11:59:34;1.00;;;0.80;;
10677;SDS011;5387;48.722;9.110;2023-08-06T12:02:03;0.77;;;0.77;;
10677;SDS011;5387;48.722;9.110;2023-08-06T12:04:31;2.90;;;1.20;;
10677;SDS011;5387;48.722;9.110;2023-08-06T12:07:17;0.90;;;0.90;;
10677;SDS011;5387;48.722;9.110;2023-08-06T12:09:43;1.00;;;0.97;;
10677;SDS011;5387;48.722;9.110;2023-08-06T12:12:10;0.83;;;0.83;;
10677;SDS011;5387;48.722;9.110;2023-08-06T12:14:37;1.15;;;1.00;;
10677;SDS011;5387;48.722;9.110;2023-08-06T12:17:05;1.00;;;1.00;;
10677;SDS011;5387;48.722;9.110;2023-08-06T12:19:32;0.98;;;0.98;;
10677;SDS011;5387;48.722;9.110;2023-08-06T12:21:58;0.90;;;0.80;;
10677;SDS011;5387;48.722;9.110;2023-08-06T12:24:25;1.38;;;0.90;;
10677;SDS011;5387;48.722;9.110;2023-08-06T12:26:56;6.53;;;1.17;;
10677;SDS011;5387;48.722;9.110;2023-08-06T12:29:23;0.90;;;0.90;;
10677;SDS011;5387;48.722;9.110;2023-08-06T12:31:51;2.95;;;1.00;;
10677;SDS011;5387;48.722;9.110;2023-08-06T12:34:19;1.52;;;1.10;;
10677;SDS011;5387;48.722;9.110;2023-08-06T12:36:45;0.90;;;0.90;;
10677;SDS011;5387;48.722;9.110;2023-08-06T12:39:12;1.02;;;1.02;;
10677;SDS011;5387;48.722;9.110;2023-08-06T12:41:39;0.90;;;0.90;;
10677;SDS011;5387;48.722;9.110;2023-08-06T12:44:06;1.48;;;0.90;;
10677;SDS011;5387;48.722;9.110;2023-08-06T12:46:32;0.73;;;0.73;;
10677;SDS011;5387;48.722;9.110;2023-08-06T12:48:59;0.90;;;0.90;;
10677;SDS011;5387;48.722;9.110;2023-08-06T12:51:27;0.88;;;0.88;;
10677;SDS011;5387;48.722;9.110;2023-08-06T12:53:54;0.90;;;0.90;;
10677;SDS011;5387;48.722;9.110;2023-08-06T12:56:21;0.90;;;0.90;;
10677;SDS011;5387;48.722;9.110;2023-08-06T12:58:48;1.33;;;0.75;;
10677;SDS011;5387;48.722;9.110;2023-08-06T13:01:14;1.05;;;1.05;;
10677;SDS011;5387;48.722;9.110;2023-08-06T13:03:41;0.73;;;0.73;;
10677;SDS011;5387;48.722;9.110;2023-08-06T13:06:08;3.15;;;1.10;;
10677;SDS011;5387;48.722;9.110;2023-08-06T13:08:36;0.90;;;0.88;;
10677;SDS011;5387;48.722;9.110;2023-08-06T13:11:03;1.00;;;1.00;;
10677;SDS011;5387;48.722;9.110;2023-08-06T13:13:31;1.48;;;1.23;;
10677;SDS011;5387;48.722;9.110;2023-08-06T13:15:57;0.98;;;0.98;;
10677;SDS011;5387;48.722;9.110;2023-08-06T13:18:24;1.02;;;1.02;;
10677;SDS011;5387;48.722;9.110;2023-08-06T13:20:52;1.10;;;1.00;;
10677;SDS011;5387;48.722;9.110;2023-08-06T13:23:19;3.63;;;0.88;;
10677;SDS011;5387;48.722;9.110;2023-08-06T13:25:47;0.95;;;0.85;;
10677;SDS011;5387;48.722;9.110;2023-08-06T13:28:14;1.10;;;1.10;;
10677;SDS011;5387;48.722;9.110;2023-08-06T13:30:41;0.80;;;0.80;;
10677;SDS011;5387;48.722;9.110;2023-08-06T13:33:08;2.35;;;1.05;;
10677;SDS011;5387;48.722;9.110;2023-08-06T13:35:35;0.82;;;0.82;;
10677;SDS011;5387;48.722;9.110;2023-08-06T13:38:01;1.63;;;1.10;;
10677;SDS011;5387;48.722;9.110;2023-08-06T13:40:28;0.80;;;0.80;;
10677;SDS011;5387;48.722;9.110;2023-08-06T13:42:57;0.80;;;0.80;;
10677;SDS011;5387;48.722;9.110;2023-08-06T13:45:24;1.02;;;0.80;;
10677;SDS011;5387;48.722;9.110;2023-08-06T13:47:51;2.05;;;0.80;;
10677;SDS011;5387;48.722;9.110;2023-08-06T13:50:21;1.00;;;0.90;;
10677;SDS011;5387;48.722;9.110;2023-08-06T13:52:50;0.65;;;0.65;;
10677;SDS011;5387;48.722;9.110;2023-08-06T13:55:18;3.40;;;0.90;;
10677;SDS011;5387;48.722;9.110;2023-08-06T13:57:45;1.00;;;1.00;;
10677;SDS011;5387;48.722;9.110;2023-08-06T14:00:13;1.20;;;1.10;;
10677;SDS011;5387;48.722;9.110;2023-08-06T14:02:40;0.70;;;0.70;;
10677;SDS011;5387;48.722;9.110;2023-08-06T14:05:08;0.90;;;0.90;;
10677;SDS011;5387;48.722;9.110;2023-08-06T14:07:35;0.77;;;0.77;;
10677;SDS011;5387;48.722;9.110;2023-08-06T14:10:02;0.70;;;0.70;;
10677;SDS011;5387;48.722;9.110;2023-08-06T14:12:30;0.88;;;0.88;;
10677;SDS011;5387;48.722;9.110;2023-08-06T14:14:57;0.90;;;0.90;;
10677;SDS011;5387;48.722;9.110;2023-08-06T14:17:25;3.97;;;0.82;;
10677;SDS011;5387;48.722;9.110;2023-08-06T14:19:52;1.00;;;1.00;;
10677;SDS011;5387;48.722;9.110;2023-08-06T14:22:19;0.75;;;0.75;;
10677;SDS011;5387;48.722;9.110;2023-08-06T14:24:46;1.10;;;1.10;;
10677;SDS011;5387;48.722;9.110;2023-08-06T14:27:13;0.70;;;0.70;;
10677;SDS011;5387;48.722;9.110;2023-08-06T14:29:39;0.65;;;0.65;;
10677;SDS011;5387;48.722;9.110;2023-08-06T14:32:06;0.70;;;0.70;;
10677;SDS011;5387;48.722;9.110;2023-08-06T14:34:35;0.70;;;0.70;;
10677;SDS011;5387;48.722;9.110;2023-08-06T14:37:02;1.20;;;1.00;;
10677;SDS011;5387;48.722;9.110;2023-08-06T14:39:29;0.95;;;0.73;;
10677;SDS011;5387;48.722;9.110;2023-08-06T14:41:55;0.80;;;0.80;;
10677;SDS011;5387;48.722;9.110;2023-08-06T14:44:22;1.00;;;1.00;;
10677;SDS011;5387;48.722;9.110;2023-08-06T14:46:49;4.30;;;1.13;;
10677;SDS011;5387;48.722;9.110;2023-08-06T14:49:16;0.88;;;0.88;;
10677;SDS011;5387;48.722;9.110;2023-08-06T14:51:44;1.52;;;1.00;;
10677;SDS011;5387;48.722;9.110;2023-08-06T14:54:10;0.90;;;0.90;;
10677;SDS011;5387;48.722;9.110;2023-08-06T14:56:37;0.85;;;0.85;;
10677;SDS011;5387;48.722;9.110;2023-08-06T14:59:04;2.05;;;1.13;;
10677;SDS011;5387;48.722;9.110;2023-08-06T15:01:31;1.03;;;1.00;;
10677;SDS011;5387;48.722;9.110;2023-08-06T15:03:58;1.80;;;1.13;;
10677;SDS011;5387;48.722;9.110;2023-08-06T15:06:25;0.80;;;0.80;;
10677;SDS011;5387;48.722;9.110;2023-08-06T15:08:53;0.93;;;0.93;;
10677;SDS011;5387;48.722;9.110;2023-08-06T15:11:23;0.90;;;0.90;;